Time;durP1;ratioP1;P1;durP2;ratioP2;P2;SDS_P1;SDS_P2;PMS_P1;PMS_P2;Temp;Humidity;BMP_temperature;BMP_pressure;BME280_temperature;BME280_humidity;BME280_pressure;Samples;Min_cycle;Max_cycle;Signal;HPM_P1;HPM_P2
2022/09/02 00:01:40;;;;;;;13.50;6.42;;;;;;;14.67;100.00;99858.64;1749762;81;20938;-70
2022/09/02 00:04:25;;;;;;;9.03;4.62;;;;;;;14.60;100.00;99864.74;1753411;81;21106;-72
2022/09/02 00:07:04;;;;;;;13.08;5.90;;;;;;;14.55;100.00;99860.78;1739752;82;20937;-74
2022/09/02 00:09:39;;;;;;;15.18;6.85;;;;;;;14.53;100.00;99862.52;1746284;82;21461;-72
2022/09/02 00:12:17;;;;;;;12.60;7.20;;;;;;;14.53;100.00;99868.62;1718435;82;20976;-71
2022/09/02 00:14:54;;;;;;;12.25;6.85;;;;;;;14.57;100.00;99864.01;1714869;82;21047;-71
2022/09/02 00:17:28;;;;;;;14.63;7.55;;;;;;;14.56;100.00;99870.15;1746492;82;21446;-71
2022/09/02 00:20:08;;;;;;;20.57;8.70;;;;;;;14.56;100.00;99870.71;1716062;82;21015;-72
2022/09/02 00:22:45;;;;;;;15.95;7.72;;;;;;;14.50;100.00;99867.92;1718581;82;20932;-75
2022/09/02 00:25:22;;;;;;;12.53;7.20;;;;;;;14.44;100.00;99874.23;1717697;82;20889;-72
2022/09/02 00:27:53;;;;;;;15.93;7.12;;;;;;;14.41;100.00;99872.95;1746421;82;20997;-72
2022/09/02 00:30:26;;;;;;;14.25;7.55;;;;;;;14.42;100.00;99875.95;1715611;82;21036;-73
2022/09/02 00:32:58;;;;;;;13.93;7.60;;;;;;;14.38;100.00;99879.75;1716999;82;20976;-70
2022/09/02 00:35:36;;;;;;;17.85;7.42;;;;;;;14.34;100.00;99879.04;1713541;82;20885;-70
2022/09/02 00:38:10;;;;;;;15.27;7.00;;;;;;;14.30;100.00;99882.80;1739345;82;20968;-72
2022/09/02 00:40:52;;;;;;;15.63;6.70;;;;;;;14.27;100.00;99878.75;1694193;82;21003;-72
2022/09/02 00:44:03;;;;;;;14.35;6.90;;;;;;;14.29;100.00;99882.58;1741617;82;20948;-73
2022/09/02 00:46:41;;;;;;;15.85;7.20;;;;;;;14.29;100.00;99889.50;1739182;81;20933;-74
2022/09/02 00:49:26;;;;;;;14.40;6.87;;;;;;;14.24;100.00;99892.70;1717251;81;20929;-71
2022/09/02 00:52:22;;;;;;;13.13;6.55;;;;;;;14.22;100.00;99889.47;1750422;81;20967;-73
2022/09/02 00:55:10;;;;;;;13.13;6.78;;;;;;;14.22;100.00;99892.24;1754439;81;21043;-70
2022/09/02 00:57:55;;;;;;;12.00;6.67;;;;;;;14.24;100.00;99899.63;1751374;81;21603;-72
2022/09/02 01:00:41;;;;;;;14.15;7.72;;;;;;;14.19;100.00;99900.41;1752401;81;20960;-71
2022/09/02 01:03:16;;;;;;;13.50;6.65;;;;;;;14.10;100.00;99897.69;1747719;81;21056;-70
2022/09/02 01:06:09;;;;;;;10.40;6.25;;;;;;;14.03;100.00;99906.52;1726198;81;20894;-70
2022/09/02 01:08:50;;;;;;;10.40;6.75;;;;;;;13.98;100.00;99908.10;1607871;87;21595;-70
2022/09/02 01:11:28;;;;;;;15.48;7.55;;;;;;;14.00;100.00;99909.97;1723640;81;21284;-71
2022/09/02 01:14:04;;;;;;;11.75;6.90;;;;;;;14.06;100.00;99912.78;1729640;81;21021;-72
2022/09/02 01:16:47;;;;;;;14.28;8.55;;;;;;;14.09;100.00;99915.47;1733376;81;21567;-70
2022/09/02 01:19:37;;;;;;;17.65;9.23;;;;;;;14.05;100.00;99914.50;1749978;81;20975;-71
2022/09/02 01:22:20;;;;;;;17.95;8.73;;;;;;;14.04;100.00;99914.27;1755304;81;21046;-71
2022/09/02 01:25:09;;;;;;;17.27;9.53;;;;;;;14.00;100.00;99914.91;1751427;80;21185;-70
2022/09/02 01:28:00;;;;;;;19.50;9.35;;;;;;;13.86;100.00;99913.78;1754718;81;21011;-74
2022/09/02 01:30:27;;;;;;;21.85;9.88;;;;;;;13.75;100.00;99917.48;1753528;81;20964;-71
2022/09/02 01:33:09;;;;;;;22.20;11.08;;;;;;;13.69;100.00;99924.36;1755286;81;20912;-72
2022/09/02 01:35:58;;;;;;;17.98;10.43;;;;;;;13.62;100.00;99926.81;1754793;81;21023;-74
2022/09/02 01:38:26;;;;;;;21.05;9.55;;;;;;;13.57;100.00;99929.20;1752591;81;21245;-75
2022/09/02 01:41:03;;;;;;;24.25;10.88;;;;;;;13.60;100.00;99928.53;1745917;80;20972;-71
2022/09/02 01:43:39;;;;;;;15.70;9.27;;;;;;;13.59;100.00;99928.30;1755745;81;20925;-75
2022/09/02 01:46:19;;;;;;;17.37;10.38;;;;;;;13.59;100.00;99933.84;1748134;81;20972;-72
2022/09/02 01:48:50;;;;;;;25.92;11.63;;;;;;;13.59;100.00;99934.41;1732256;81;20976;-74
2022/09/02 01:51:28;;;;;;;23.65;12.50;;;;;;;13.58;100.00;99936.95;1756133;80;20941;-72
2022/09/02 01:53:55;;;;;;;24.75;13.05;;;;;;;13.51;100.00;99938.81;1756776;81;21537;-72
2022/09/02 01:56:27;;;;;;;17.60;10.72;;;;;;;13.51;100.00;99942.96;1750950;81;20989;-71
2022/09/02 01:58:54;;;;;;;25.25;13.40;;;;;;;13.51;100.00;99944.34;1756293;81;21466;-71
2022/09/02 02:01:25;;;;;;;26.97;14.00;;;;;;;13.53;100.00;99947.60;1756504;81;21053;-71
2022/09/02 02:04:10;;;;;;;22.87;12.63;;;;;;;13.47;100.00;99942.80;1755120;81;21492;-71
2022/09/02 02:06:56;;;;;;;27.77;13.28;;;;;;;13.41;100.00;99942.72;1756873;81;21056;-72
2022/09/02 02:09:34;;;;;;;26.00;13.35;;;;;;;13.36;100.00;99942.89;1718048;83;20897;-74
2022/09/02 02:12:06;;;;;;;26.73;12.23;;;;;;;13.27;100.00;99944.31;1756985;81;21015;-72
2022/09/02 02:14:35;;;;;;;24.18;12.18;;;;;;;13.24;100.00;99948.53;1718625;83;20937;-71
2022/09/02 02:17:11;;;;;;;23.75;13.65;;;;;;;13.22;100.00;99948.63;1757104;80;21946;-72
2022/09/02 02:19:39;;;;;;;24.40;13.20;;;;;;;13.20;100.00;99943.42;1756992;81;21010;-74
2022/09/02 02:22:15;;;;;;;21.30;12.55;;;;;;;13.15;100.00;99951.89;1755505;81;20961;-73
2022/09/02 02:25:00;;;;;;;21.25;13.13;;;;;;;13.13;100.00;99952.22;1757186;81;20925;-75
2022/09/02 02:27:36;;;;;;;25.23;13.03;;;;;;;13.11;100.00;99952.29;1756772;80;21577;-72
2022/09/02 02:30:10;;;;;;;26.60;12.45;;;;;;;13.09;100.00;99949.03;1757240;81;21171;-74
2022/09/02 02:32:46;;;;;;;20.50;11.85;;;;;;;13.06;100.00;99945.54;1711361;82;20885;-74
2022/09/02 02:35:23;;;;;;;22.48;12.60;;;;;;;13.03;100.00;99951.97;1756826;81;20937;-75
2022/09/02 02:37:56;;;;;;;23.90;12.18;;;;;;;13.03;100.00;99951.17;1752702;81;21009;-71
2022/09/02 02:40:33;;;;;;;23.95;13.35;;;;;;;13.02;100.00;99946.76;1756937;81;20897;-71
2022/09/02 02:43:03;;;;;;;25.15;12.95;;;;;;;13.00;100.00;99947.65;1718249;83;21500;-71
2022/09/02 02:45:41;;;;;;;22.75;12.53;;;;;;;12.99;100.00;99948.80;1751808;81;20971;-72
2022/09/02 02:53:46;;;;;;;22.87;12.45;;;;;;;12.93;100.00;99957.03;1719384;83;21476;-74
2022/09/02 02:56:17;;;;;;;24.72;13.18;;;;;;;12.83;100.00;99954.02;1719830;82;22061;-73
2022/09/02 02:58:52;;;;;;;22.05;11.53;;;;;;;12.81;100.00;99959.05;1748270;82;20944;-73
2022/09/02 03:01:20;;;;;;;24.65;12.85;;;;;;;12.84;100.00;99959.78;1747685;82;20968;-73
2022/09/02 03:03:50;;;;;;;25.10;11.70;;;;;;;12.76;100.00;99961.42;1730476;81;21869;-71
2022/09/02 03:06:19;;;;;;;24.07;12.20;;;;;;;12.80;100.00;99964.33;1734937;81;21027;-72
2022/09/02 03:08:58;;;;;;;16.35;10.72;;;;;;;12.79;100.00;99969.06;1725274;82;20930;-70
2022/09/02 03:11:27;;;;;;;19.47;10.67;;;;;;;12.80;100.00;99967.91;1749000;81;20917;-73
2022/09/02 03:14:06;;;;;;;33.35;12.25;;;;;;;12.78;100.00;99972.39;1741395;82;20992;-73
2022/09/02 03:16:43;;;;;;;20.82;10.40;;;;;;;12.78;100.00;99979.86;1764519;81;21460;-73
2022/09/02 03:19:22;;;;;;;18.35;11.50;;;;;;;12.80;100.00;99977.59;1753664;80;20936;-74
2022/09/02 03:22:10;;;;;;;28.90;12.85;;;;;;;12.79;100.00;99971.83;1725534;82;21146;-74
2022/09/02 03:24:51;;;;;;;23.73;11.95;;;;;;;12.83;100.00;99986.61;1734522;81;20948;-74
2022/09/02 03:27:33;;;;;;;21.05;13.03;;;;;;;12.81;100.00;99984.73;1747401;82;21007;-72
2022/09/02 03:30:10;;;;;;;24.92;12.85;;;;;;;12.84;100.00;99989.64;1723802;82;20933;-72
2022/09/02 03:32:43;;;;;;;21.87;11.97;;;;;;;12.83;100.00;99992.14;1748769;82;20925;-74
2022/09/02 03:38:06;;;;;;;22.32;11.65;;;;;;;12.85;100.00;100001.50;1758103;81;21023;-74
2022/09/02 03:40:43;;;;;;;26.23;12.78;;;;;;;12.90;100.00;100004.11;1734556;81;20992;-73
2022/09/02 03:43:21;;;;;;;26.02;12.55;;;;;;;12.93;100.00;100008.98;1723589;83;20997;-74
2022/09/02 03:45:57;;;;;;;19.05;12.23;;;;;;;12.92;100.00;100010.69;1711636;81;20952;-74
2022/09/02 03:48:29;;;;;;;21.12;11.35;;;;;;;12.90;100.00;100010.46;1764735;81;21641;-74
2022/09/02 03:51:04;;;;;;;27.80;12.03;;;;;;;12.94;100.00;100016.16;1723869;82;21033;-74
2022/09/02 03:53:41;;;;;;;21.15;12.40;;;;;;;13.00;100.00;100016.80;1693216;84;21044;-71
2022/09/02 03:56:13;;;;;;;30.80;13.20;;;;;;;13.08;100.00;100020.16;1699204;83;21045;-74
2022/09/02 03:58:45;;;;;;;30.48;15.18;;;;;;;13.10;100.00;100024.78;1721695;83;20957;-72
2022/09/02 04:01:19;;;;;;;33.10;15.63;;;;;;;13.13;100.00;100026.09;1721468;83;20889;-70
2022/09/02 04:03:59;;;;;;;32.53;16.42;;;;;;;13.12;100.00;100034.95;1719697;83;20858;-71
2022/09/02 04:06:35;;;;;;;29.82;15.58;;;;;;;13.11;100.00;100031.13;1721384;83;21064;-72
2022/09/02 04:09:05;;;;;;;27.40;15.58;;;;;;;13.17;100.00;100029.03;1698908;83;20958;-71
2022/09/02 04:11:47;;;;;;;37.05;17.73;;;;;;;13.15;100.00;100032.12;1721692;83;21326;-73
2022/09/02 04:14:26;;;;;;;29.60;15.98;;;;;;;13.13;100.00;100033.84;1713518;83;20968;-70
2022/09/02 04:16:59;;;;;;;35.98;17.37;;;;;;;13.17;100.00;100034.56;1695691;83;20937;-71
2022/09/02 04:19:27;;;;;;;29.80;15.03;;;;;;;13.21;100.00;100041.05;1721780;83;21008;-69
2022/09/02 04:22:12;;;;;;;27.42;14.15;;;;;;;13.23;100.00;100049.85;1700681;83;21367;-73
2022/09/02 04:24:59;;;;;;;21.52;11.80;;;;;;;13.23;100.00;100050.67;1714177;83;21568;-69
2022/09/02 04:27:36;;;;;;;23.10;12.43;;;;;;;13.27;100.00;100047.48;1697797;83;21025;-71
2022/09/02 04:30:09;;;;;;;25.88;13.03;;;;;;;13.34;100.00;100048.38;1721224;83;20954;-73
2022/09/02 04:32:47;;;;;;;29.48;12.95;;;;;;;13.37;100.00;100054.64;1719693;83;21000;-73
2022/09/02 04:35:23;;;;;;;34.58;13.72;;;;;;;13.42;100.00;100057.02;1721619;83;20889;-72
2022/09/02 04:38:18;;;;;;;31.05;14.80;;;;;;;13.50;100.00;100057.58;1720857;83;20953;-72
2022/09/02 04:41:00;;;;;;;26.68;14.33;;;;;;;13.65;100.00;100057.67;1695665;83;21064;-71
2022/09/02 04:43:56;;;;;;;29.25;16.40;;;;;;;13.75;100.00;100062.04;1719136;83;20984;-71
2022/09/02 04:46:31;;;;;;;32.85;16.55;;;;;;;13.79;100.00;100063.59;1720341;83;20942;-73
2022/09/02 04:49:13;;;;;;;35.98;17.23;;;;;;;13.92;100.00;100064.55;1716753;83;20933;-73
2022/09/02 04:52:01;;;;;;;39.35;18.85;;;;;;;13.99;100.00;100068.44;1704855;83;21012;-73
2022/09/02 04:55:14;;;;;;;43.25;21.20;;;;;;;14.09;100.00;100066.47;1728395;83;21085;-71
2022/09/02 04:57:53;;;;;;;46.60;23.80;;;;;;;14.16;100.00;100063.19;1728435;83;21469;-72
2022/09/02 05:00:39;;;;;;;57.20;25.90;;;;;;;14.27;100.00;100074.14;1698561;83;20989;-73
2022/09/02 05:03:26;;;;;;;67.87;30.60;;;;;;;14.35;100.00;100062.20;1731092;83;20889;-73
2022/09/02 05:06:01;;;;;;;68.87;33.53;;;;;;;14.42;100.00;100060.30;1731799;82;21465;-72
2022/09/02 05:15:02;;;;;;;88.70;39.88;;;;;;;14.71;100.00;100065.62;1666148;85;21532;-69
2022/09/02 05:18:01;;;;;;;88.03;44.58;;;;;;;14.81;100.00;100068.61;1663169;86;21047;-73
2022/09/02 05:20:59;;;;;;;153.15;73.60;;;;;;;14.92;100.00;100069.03;1639256;86;21000;-73
2022/09/02 05:23:42;;;;;;;141.60;72.25;;;;;;;15.05;100.00;100071.30;1615692;87;21092;-71
2022/09/02 05:26:46;;;;;;;150.80;76.57;;;;;;;15.15;100.00;100076.23;1538277;92;21006;-72
2022/09/02 05:32:33;;;;;;;169.40;82.60;;;;;;;15.35;100.00;100075.99;1633428;86;21383;-71
2022/09/02 05:35:21;;;;;;;168.37;84.10;;;;;;;15.46;100.00;100074.98;1643565;86;21076;-72
2022/09/02 05:38:16;;;;;;;170.75;86.42;;;;;;;15.62;100.00;100085.48;1665257;86;21075;-73
2022/09/02 05:40:58;;;;;;;175.35;85.60;;;;;;;15.75;100.00;100081.59;1646825;86;20956;-73
2022/09/02 05:43:37;;;;;;;176.87;95.03;;;;;;;15.87;100.00;100078.04;1654642;86;21473;-73
2022/09/02 05:46:12;;;;;;;174.00;88.45;;;;;;;15.96;100.00;100080.73;1705464;83;20999;-71
2022/09/02 05:52:13;;;;;;;169.50;88.27;;;;;;;16.17;100.00;100083.46;1727291;82;21454;-76
2022/09/02 05:54:45;;;;;;;174.40;90.03;;;;;;;16.34;100.00;100076.66;1759543;81;20941;-74
2022/09/02 06:04:11;;;;;;;122.33;61.18;;;;;;;16.60;100.00;100083.27;1757761;81;20908;-69
2022/09/02 06:06:59;;;;;;;137.60;67.15;;;;;;;16.72;100.00;100080.27;1760334;81;20936;-71
2022/09/02 06:09:50;;;;;;;146.85;76.05;;;;;;;16.86;100.00;100086.28;1753314;81;20980;-73
2022/09/02 06:21:36;;;;;;;105.17;55.45;;;;;;;17.32;100.00;100097.82;1742151;81;21000;-72
2022/09/02 06:24:13;;;;;;;116.67;60.38;;;;;;;17.46;100.00;100104.40;1761495;81;20936;-71
2022/09/02 06:27:00;;;;;;;109.22;54.70;;;;;;;17.59;100.00;100108.52;1723947;81;20988;-72
2022/09/02 06:30:12;;;;;;;155.72;77.87;;;;;;;17.70;100.00;100097.69;1647195;86;20984;-70
2022/09/02 06:33:36;;;;;;;161.03;83.85;;;;;;;17.81;100.00;100102.19;1650737;86;20989;-69
2022/09/02 06:39:47;;;;;;;184.43;96.02;;;;;;;18.00;100.00;100110.67;1734310;81;21035;-72
2022/09/02 06:42:32;;;;;;;193.93;98.60;;;;;;;18.08;100.00;100106.08;1763098;81;20967;-72
2022/09/02 06:51:33;;;;;;;328.18;176.97;;;;;;;18.41;100.00;100112.53;1715999;83;21081;-71
2022/09/02 06:54:22;;;;;;;379.13;208.82;;;;;;;18.53;100.00;100115.83;1697046;83;21482;-69
2022/09/02 06:57:26;;;;;;;366.10;197.20;;;;;;;18.65;100.00;100119.11;1580747;90;21052;-72
2022/09/02 07:15:51;;;;;;;159.95;88.97;;;;;;;19.38;94.92;100133.35;1617230;87;21508;-70
2022/09/02 07:18:36;;;;;;;132.70;68.85;;;;;;;19.53;93.67;100133.06;1637540;87;21175;-74
2022/09/02 07:21:28;;;;;;;93.00;51.42;;;;;;;19.61;87.54;100131.25;1647687;86;21553;-70
2022/09/02 07:30:30;;;;;;;42.48;24.60;;;;;;;19.80;83.52;100134.64;1572043;90;21068;-71
2022/09/02 07:33:27;;;;;;;20.05;11.83;;;;;;;19.90;81.76;100138.00;1539258;91;21152;-71
2022/09/02 07:36:04;;;;;;;17.45;9.88;;;;;;;19.91;75.87;100141.82;1534585;90;21086;-71
2022/09/02 07:39:16;;;;;;;15.93;9.43;;;;;;;19.97;72.94;100139.55;1587050;89;21149;-69
2022/09/02 07:42:09;;;;;;;19.35;8.80;;;;;;;20.02;71.25;100141.22;1592279;89;21120;-74
2022/09/02 07:44:45;;;;;;;10.98;5.90;;;;;;;20.13;74.08;100142.27;1609352;89;21111;-70
2022/09/02 07:47:28;;;;;;;8.60;4.50;;;;;;;20.21;70.31;100141.00;1635468;87;20962;-71
2022/09/02 07:50:15;;;;;;;11.60;4.90;;;;;;;20.23;66.71;100136.67;1670610;83;21057;-73
2022/09/02 07:52:49;;;;;;;8.78;4.58;;;;;;;20.25;65.69;100133.50;1709183;82;20930;-68
2022/09/02 07:55:26;;;;;;;8.55;5.40;;;;;;;20.31;66.21;100135.62;1696902;83;20957;-71
2022/09/02 07:58:18;;;;;;;12.60;5.60;;;;;;;20.46;69.44;100132.23;1721078;81;20925;-72
2022/09/02 08:00:55;;;;;;;11.22;6.37;;;;;;;20.58;66.60;100133.45;1670362;84;21877;-71
2022/09/02 08:03:28;;;;;;;25.08;8.13;;;;;;;20.67;66.05;100135.42;1739922;81;20941;-72
2022/09/02 08:06:15;;;;;;;12.25;6.12;;;;;;;20.71;65.66;100124.87;1755516;81;21005;-70
2022/09/02 08:08:57;;;;;;;5.30;2.62;;;;;;;20.79;68.46;100134.41;1728137;81;20913;-70
2022/09/02 08:11:33;;;;;;;5.97;2.85;;;;;;;20.86;62.51;100130.92;1755354;81;20901;-71
2022/09/02 08:14:12;;;;;;;5.15;3.17;;;;;;;20.93;59.76;100131.65;1750990;81;21504;-71
2022/09/02 08:17:09;;;;;;;8.38;2.70;;;;;;;21.01;60.60;100136.75;1639863;87;21527;-72
2022/09/02 08:19:46;;;;;;;8.50;4.35;;;;;;;21.18;60.15;100123.38;1668261;83;21009;-72
2022/09/02 08:25:17;;;;;;;8.08;2.58;;;;;;;21.24;58.62;100105.08;1755406;81;20944;-74
2022/09/02 08:27:56;;;;;;;4.10;1.87;;;;;;;21.32;55.83;100114.38;1763125;80;20948;-72
2022/09/02 08:30:27;;;;;;;5.20;1.85;;;;;;;21.39;59.52;100118.06;1732369;81;21273;-75
2022/09/02 08:32:59;;;;;;;5.00;2.27;;;;;;;21.59;58.79;100117.93;1763716;81;20924;-70
2022/09/02 08:35:36;;;;;;;8.00;2.10;;;;;;;21.67;56.15;100118.81;1728454;81;21583;-72
2022/09/02 08:38:10;;;;;;;3.77;1.85;;;;;;;21.60;51.68;100120.94;1763848;81;20853;-71
2022/09/02 08:40:51;;;;;;;2.12;1.62;;;;;;;21.54;52.98;100116.87;1763126;81;21492;-74
2022/09/02 08:43:54;;;;;;;6.12;1.80;;;;;;;21.62;56.13;100117.75;1761336;81;20991;-72
2022/09/02 08:46:40;;;;;;;9.20;1.62;;;;;;;21.68;53.79;100112.63;1759100;81;21370;-71
2022/09/02 08:49:36;;;;;;;3.50;1.42;;;;;;;21.73;53.09;100106.67;1760971;81;21097;-73
2022/09/02 08:52:07;;;;;;;3.65;1.45;;;;;;;21.72;50.89;100114.86;1760590;81;21000;-73
2022/09/02 08:55:01;;;;;;;8.68;1.40;;;;;;;21.57;49.91;100113.30;1726680;80;20948;-74
2022/09/02 08:57:48;;;;;;;6.60;1.77;;;;;;;21.44;50.13;100114.14;1755456;81;20933;-70
2022/09/02 09:00:21;;;;;;;6.97;2.12;;;;;;;21.22;50.27;100108.23;1749105;81;21071;-72
2022/09/02 09:03:17;;;;;;;2.98;1.52;;;;;;;21.24;51.57;100112.08;1750151;81;21032;-73
2022/09/02 09:08:58;;;;;;;5.08;2.50;;;;;;;21.62;52.19;100102.33;1687937;85;20916;-71
2022/09/02 09:12:01;;;;;;;3.40;2.22;;;;;;;21.92;53.58;100104.29;1690214;85;21069;-71
2022/09/02 09:15:09;;;;;;;5.75;2.10;;;;;;;22.16;53.65;100105.55;1689610;84;21035;-73
2022/09/02 09:18:15;;;;;;;3.12;1.70;;;;;;;22.21;50.65;100106.60;1662356;86;21564;-73
2022/09/02 09:20:54;;;;;;;4.78;2.42;;;;;;;22.05;49.27;100106.25;1657970;86;21459;-72
2022/09/02 09:23:38;;;;;;;7.10;2.47;;;;;;;21.87;48.99;100094.23;1725122;81;21123;-73
2022/09/02 09:26:22;;;;;;;18.62;7.75;;;;;;;21.86;51.90;100098.23;1728111;81;20941;-74
2022/09/02 09:28:58;;;;;;;15.08;6.08;;;;;;;21.87;52.63;100101.86;1754652;81;21441;-70
2022/09/02 09:31:31;;;;;;;9.50;4.12;;;;;;;21.85;50.45;100106.42;1746857;81;20984;-71
2022/09/02 09:34:18;;;;;;;5.92;3.92;;;;;;;21.79;50.22;100104.34;1754913;81;20984;-71
2022/09/02 09:37:01;;;;;;;8.63;3.90;;;;;;;21.88;51.62;100105.68;1750857;81;21005;-71
2022/09/02 09:42:33;;;;;;;9.05;4.75;;;;;;;22.29;51.22;100106.88;1736487;81;20897;-72
2022/09/02 09:45:30;;;;;;;;;;;;;;;22.16;48.57;100101.34;1753393;81;20953;-73
2022/09/02 09:48:30;;;;;;;9.98;4.65;;;;;;;22.07;49.36;100108.08;1755717;81;20106;-75
2022/09/02 09:51:13;;;;;;;8.40;4.72;;;;;;;21.99;49.72;100107.80;1752089;81;21016;-72
2022/09/02 09:53:45;;;;;;;9.50;5.20;;;;;;;21.88;51.01;100110.47;1754803;81;21517;-75
2022/09/02 09:56:37;;;;;;;11.43;4.75;;;;;;;21.97;52.54;100113.77;1754617;80;20989;-71
2022/09/02 09:59:46;;;;;;;7.62;4.47;;;;;;;22.15;52.27;100109.53;1746975;81;21047;-73
2022/09/02 10:02:36;;;;;;;11.65;5.05;;;;;;;22.43;53.76;100111.81;1747615;81;20885;-73
2022/09/02 10:05:39;;;;;;;8.68;4.62;;;;;;;22.57;48.56;100108.30;1754338;81;21511;-72
2022/09/02 10:08:30;;;;;;;8.85;3.70;;;;;;;22.66;47.79;100099.58;1753927;81;20997;-71
2022/09/02 10:11:07;;;;;;;5.37;3.65;;;;;;;22.84;47.36;100110.94;1750230;81;20993;-71
2022/09/02 10:13:42;;;;;;;13.60;4.67;;;;;;;23.03;46.53;100110.45;1700129;81;21433;-74
2022/09/02 10:16:52;;;;;;;6.20;3.20;;;;;;;23.22;45.15;100100.94;1750833;81;21461;-74
2022/09/02 10:19:48;;;;;;;4.85;3.00;;;;;;;23.41;45.17;100103.27;1753136;81;21492;-72
2022/09/02 10:26:25;;;;;;;7.17;3.60;;;;;;;23.53;42.42;100099.30;1642434;84;21622;-71
2022/09/02 10:30:01;;;;;;;5.67;3.15;;;;;;;23.41;42.17;100088.39;1752078;81;21034;-72
2022/09/02 10:32:57;;;;;;;8.68;3.90;;;;;;;23.46;44.96;100084.61;1684510;85;20989;-73
2022/09/02 10:35:54;;;;;;;8.63;3.87;;;;;;;23.54;45.19;100088.25;1675373;81;21012;-72
2022/09/02 10:38:44;;;;;;;5.53;2.65;;;;;;;23.54;45.43;100090.27;1747643;81;21235;-71
2022/09/02 10:41:46;;;;;;;6.53;3.00;;;;;;;23.62;45.08;100099.53;1749952;81;20877;-71
2022/09/02 10:44:40;;;;;;;9.18;3.25;;;;;;;23.64;45.05;100102.75;1755354;81;20941;-74
2022/09/02 10:47:42;;;;;;;6.40;2.98;;;;;;;23.56;43.29;100102.72;1725163;81;21055;-73
2022/09/02 10:50:43;;;;;;;8.68;3.60;;;;;;;23.67;41.75;100094.92;1796799;79;20981;-75
2022/09/02 10:54:02;;;;;;;7.90;4.05;;;;;;;23.68;40.70;100095.13;1757162;79;21158;-74
2022/09/02 10:56:43;;;;;;;6.22;3.77;;;;;;;23.70;40.94;100096.94;1747348;82;20982;-74
2022/09/02 10:59:30;;;;;;;7.75;3.75;;;;;;;23.87;40.07;100098.20;1747484;82;20919;-72
2022/09/02 11:02:22;;;;;;;;;;;;;;;23.95;40.49;100097.01;1785163;79;20959;-74
2022/09/02 11:05:05;;;;;;;7.45;4.17;;;;;;;24.14;39.81;100091.42;1770470;79;20094;-70
2022/09/02 11:08:01;;;;;;;12.95;5.03;;;;;;;23.98;38.61;100096.83;1758358;81;20871;-75
2022/09/02 11:11:01;;;;;;;11.48;5.00;;;;;;;23.90;40.97;100092.39;1715928;81;21038;-72
2022/09/02 11:14:04;;;;;;;11.53;5.35;;;;;;;23.80;40.13;100098.98;1765716;81;20898;-72
2022/09/02 11:16:48;;;;;;;8.95;5.33;;;;;;;23.70;39.33;100095.53;1764454;81;20878;-73
2022/09/02 11:19:36;;;;;;;14.70;5.28;;;;;;;23.67;40.20;100094.33;1755926;81;21443;-70
2022/09/02 11:22:44;;;;;;;7.72;5.05;;;;;;;23.68;39.92;100097.34;1669566;85;21074;-70
2022/09/02 11:25:40;;;;;;;13.80;6.35;;;;;;;23.75;40.71;100095.15;1763866;81;20910;-72
2022/09/02 11:28:41;;;;;;;10.60;5.78;;;;;;;23.69;40.15;100092.53;1743011;81;20938;-71
2022/09/02 11:31:29;;;;;;;13.20;7.15;;;;;;;23.86;39.86;100088.75;1755185;81;20925;-73
2022/09/02 11:34:01;;;;;;;13.62;6.80;;;;;;;23.81;36.38;100087.95;1765886;81;21549;-75
2022/09/02 11:36:54;;;;;;;14.60;7.72;;;;;;;23.86;38.44;100087.34;1761018;81;20977;-72
2022/09/02 11:39:54;;;;;;;15.05;8.78;;;;;;;23.93;38.06;100090.18;1765964;81;20910;-73
2022/09/02 11:42:57;;;;;;;19.17;8.98;;;;;;;24.03;40.07;100093.63;1765522;81;20978;-72
2022/09/02 11:46:03;;;;;;;14.25;8.38;;;;;;;24.27;39.09;100092.67;1760709;81;21467;-72
2022/09/02 11:49:20;;;;;;;14.85;8.13;;;;;;;24.53;39.14;100088.45;1764896;81;20879;-72
2022/09/02 11:52:27;;;;;;;16.12;8.73;;;;;;;24.63;38.38;100087.64;1754282;81;20966;-72
2022/09/02 11:55:16;;;;;;;18.35;9.33;;;;;;;24.63;36.54;100082.61;1699702;83;21405;-71
2022/09/02 11:57:56;;;;;;;14.55;8.38;;;;;;;24.73;35.89;100085.20;1746165;81;20952;-72
2022/09/02 12:00:39;;;;;;;14.87;9.30;;;;;;;24.87;36.06;100084.39;1763628;81;21061;-74
2022/09/02 12:03:14;;;;;;;19.35;9.63;;;;;;;24.80;37.13;100083.80;1727807;80;20890;-71
2022/09/02 12:05:51;;;;;;;13.60;8.68;;;;;;;24.87;38.01;100078.75;1726817;81;21257;-74
2022/09/02 12:08:52;;;;;;;18.45;8.93;;;;;;;24.87;36.72;100087.98;1718838;81;20992;-74
2022/09/02 12:14:35;;;;;;;20.32;9.95;;;;;;;24.57;37.63;100081.42;1757574;81;21541;-73
2022/09/02 12:17:58;;;;;;;18.30;9.40;;;;;;;24.45;37.66;100080.59;1726151;81;21051;-71
2022/09/02 12:20:46;;;;;;;18.85;9.25;;;;;;;24.48;37.43;100081.20;1689333;85;21015;-72
2022/09/02 12:24:11;;;;;;;15.35;9.13;;;;;;;24.24;35.27;100075.16;1682909;84;21043;-74
2022/09/02 12:26:51;;;;;;;19.17;8.95;;;;;;;24.04;36.23;100074.11;1725842;81;20964;-71
2022/09/02 12:29:41;;;;;;;20.10;8.65;;;;;;;23.95;35.66;100073.09;1745033;81;20892;-72
2022/09/02 12:32:53;;;;;;;21.10;9.18;;;;;;;23.85;37.12;100064.03;1618452;86;21412;-72
2022/09/02 12:35:46;;;;;;;19.07;8.83;;;;;;;24.06;38.31;100066.09;1619390;87;21078;-71
2022/09/02 12:38:31;;;;;;;15.58;8.75;;;;;;;24.34;38.41;100075.58;1751287;81;20876;-72
2022/09/02 12:41:23;;;;;;;18.48;9.80;;;;;;;24.57;38.85;100070.16;1749499;81;21429;-73
2022/09/02 12:44:29;;;;;;;19.30;9.18;;;;;;;24.76;38.06;100065.48;1756406;81;20932;-70
2022/09/02 12:47:24;;;;;;;17.48;9.50;;;;;;;24.89;36.92;100067.27;1690430;84;21555;-72
2022/09/02 12:53:42;;;;;;;19.25;10.78;;;;;;;25.04;34.90;100070.09;1705296;83;21100;-72
2022/09/02 12:56:28;;;;;;;18.12;11.00;;;;;;;25.12;35.26;100068.04;1724079;83;21003;-71
2022/09/02 12:59:30;;;;;;;15.95;10.53;;;;;;;25.25;35.03;100066.98;1727953;83;21007;-71
2022/09/02 13:02:39;;;;;;;18.00;10.78;;;;;;;25.22;34.31;100069.20;1728353;83;21023;-71
2022/09/02 13:05:37;;;;;;;22.35;9.00;;;;;;;24.97;34.43;100059.64;1661427;86;20972;-70
2022/09/02 13:08:43;;;;;;;18.87;10.00;;;;;;;24.73;34.86;100066.90;1670141;85;20907;-73
2022/09/02 13:12:02;;;;;;;15.38;9.13;;;;;;;24.72;34.84;100059.67;1681446;85;20960;-71
2022/09/02 13:15:44;;;;;;;17.05;8.95;;;;;;;24.81;33.62;100061.45;1692548;84;21058;-70
2022/09/02 13:18:55;;;;;;;12.47;7.37;;;;;;;24.87;33.95;100059.03;1698337;83;21552;-70
2022/09/02 13:22:09;;;;;;;14.68;9.13;;;;;;;24.66;33.53;100053.63;1663328;84;21113;-71
2022/09/02 13:25:24;;;;;;;15.77;8.23;;;;;;;24.48;34.63;100053.66;1698531;84;21492;-75
2022/09/02 13:28:38;;;;;;;15.30;7.87;;;;;;;24.48;34.71;100046.63;1690555;83;21014;-73
2022/09/02 13:31:27;;;;;;;11.73;6.90;;;;;;;24.32;34.34;100039.39;1665255;86;20983;-75
2022/09/02 13:34:07;;;;;;;11.73;7.70;;;;;;;24.35;34.83;100041.98;1607206;84;20971;-75
2022/09/02 13:36:47;;;;;;;13.93;5.78;;;;;;;24.35;35.10;100033.55;1732581;81;21040;-75
2022/09/02 13:39:26;;;;;;;18.00;7.58;;;;;;;24.33;35.38;100033.16;1727686;83;20964;-71
2022/09/02 13:42:17;;;;;;;10.05;6.70;;;;;;;24.24;34.45;100027.31;1738943;81;20963;-71
2022/09/02 13:45:37;;;;;;;9.50;5.90;;;;;;;24.13;34.43;100027.89;1729100;83;21585;-72
2022/09/02 13:48:32;;;;;;;11.30;5.85;;;;;;;23.95;34.09;100030.11;1670374;85;21579;-68
2022/09/02 13:51:16;;;;;;;12.20;6.65;;;;;;;23.79;33.98;100024.25;1659123;83;21529;-71
2022/09/02 13:53:57;;;;;;;13.75;5.92;;;;;;;23.79;35.86;100024.25;1725459;82;20922;-72
2022/09/02 13:56:37;;;;;;;11.90;5.85;;;;;;;23.82;35.30;100021.23;1721126;83;21013;-72
2022/09/02 13:59:07;;;;;;;13.45;7.15;;;;;;;23.76;35.09;100019.43;1757479;81;20956;-70
2022/09/02 14:01:46;;;;;;;13.08;6.70;;;;;;;23.76;35.80;100026.46;1733721;81;21399;-69
2022/09/02 14:04:19;;;;;;;11.20;6.30;;;;;;;23.74;36.17;100021.02;1757351;81;21123;-69
2022/09/02 14:06:50;;;;;;;10.85;6.08;;;;;;;23.80;36.38;100021.63;1757239;80;21519;-69